sensor_id;sensor_type;location;lat;lon;timestamp;pressure;altitude;pressure_sealevel;temperature;humidity
21547;BME280;41275;51.912;4.388;2023-02-01T00:04:05;102032.44;;;13.55;43.62
21547;BME280;41275;51.912;4.388;2023-02-01T00:09:26;102040.63;;;13.54;43.31
21547;BME280;41275;51.912;4.388;2023-02-01T00:14:47;102054.97;;;13.53;43.20
21547;BME280;41275;51.912;4.388;2023-02-01T00:20:09;102051.31;;;13.47;42.79
21547;BME280;41275;51.912;4.388;2023-02-01T00:25:31;102052.59;;;13.44;42.75
21547;BME280;41275;51.912;4.388;2023-02-01T00:30:59;102045.44;;;13.38;42.75
21547;BME280;41275;51.912;4.388;2023-02-01T00:36:21;102035.03;;;13.37;43.00
21547;BME280;41275;51.912;4.388;2023-02-01T00:41:42;102051.97;;;13.42;42.88
21547;BME280;41275;51.912;4.388;2023-02-01T00:47:04;102051.41;;;13.34;43.06
21547;BME280;41275;51.912;4.388;2023-02-01T00:52:25;102033.00;;;13.32;43.26
21547;BME280;41275;51.912;4.388;2023-02-01T00:57:46;102028.28;;;13.34;43.31
21547;BME280;41275;51.912;4.388;2023-02-01T01:03:07;102015.81;;;13.35;43.47
21547;BME280;41275;51.912;4.388;2023-02-01T01:08:39;102022.56;;;13.37;44.03
21547;BME280;41275;51.912;4.388;2023-02-01T01:14:01;102008.00;;;13.40;44.05
21547;BME280;41275;51.912;4.388;2023-02-01T01:19:22;102014.84;;;13.54;43.80
21547;BME280;41275;51.912;4.388;2023-02-01T01:24:43;102009.50;;;13.61;44.08
21547;BME280;41275;51.912;4.388;2023-02-01T01:30:05;102010.06;;;13.63;43.89
21547;BME280;41275;51.912;4.388;2023-02-01T01:35:29;102011.63;;;13.52;44.38
21547;BME280;41275;51.912;4.388;2023-02-01T01:40:51;102019.59;;;13.52;44.12
21547;BME280;41275;51.912;4.388;2023-02-01T01:46:19;102021.47;;;13.45;44.56
21547;BME280;41275;51.912;4.388;2023-02-01T01:52:07;102018.00;;;13.44;44.56
21547;BME280;41275;51.912;4.388;2023-02-01T01:57:32;102042.09;;;13.49;44.52
21547;BME280;41275;51.912;4.388;2023-02-01T02:03:05;102020.88;;;13.43;44.72
21547;BME280;41275;51.912;4.388;2023-02-01T02:08:28;102004.91;;;13.43;44.69
21547;BME280;41275;51.912;4.388;2023-02-01T02:13:52;102003.19;;;13.55;44.58
21547;BME280;41275;51.912;4.388;2023-02-01T02:31:04;101990.06;;;13.60;44.99
21547;BME280;41275;51.912;4.388;2023-02-01T02:42:25;102000.31;;;13.57;44.66
21547;BME280;41275;51.912;4.388;2023-02-01T02:48:17;101990.06;;;13.60;44.61
21547;BME280;41275;51.912;4.388;2023-02-01T02:53:53;101994.13;;;13.63;44.36
21547;BME280;41275;51.912;4.388;2023-02-01T02:59:39;101985.31;;;13.62;44.52
21547;BME280;41275;51.912;4.388;2023-02-01T03:05:20;101987.16;;;13.62;44.32
21547;BME280;41275;51.912;4.388;2023-02-01T03:10:47;101983.28;;;13.64;43.83
21547;BME280;41275;51.912;4.388;2023-02-01T03:16:20;101972.31;;;13.54;44.10
21547;BME280;41275;51.912;4.388;2023-02-01T03:22:00;101947.44;;;13.42;44.58
21547;BME280;41275;51.912;4.388;2023-02-01T03:33:11;101962.09;;;13.26;44.98
21547;BME280;41275;51.912;4.388;2023-02-01T03:39:03;101970.50;;;13.23;45.44
21547;BME280;41275;51.912;4.388;2023-02-01T03:44:30;101963.72;;;13.27;45.22
21547;BME280;41275;51.912;4.388;2023-02-01T03:49:58;101966.19;;;13.22;45.42
21547;BME280;41275;51.912;4.388;2023-02-01T03:55:22;101958.63;;;13.19;45.42
21547;BME280;41275;51.912;4.388;2023-02-01T04:00:50;101948.25;;;13.17;45.14
21547;BME280;41275;51.912;4.388;2023-02-01T04:06:11;101955.19;;;13.18;45.35
21547;BME280;41275;51.912;4.388;2023-02-01T04:11:32;101955.75;;;13.27;44.88
21547;BME280;41275;51.912;4.388;2023-02-01T04:16:54;101956.09;;;13.37;44.68
21547;BME280;41275;51.912;4.388;2023-02-01T04:22:15;101970.16;;;13.44;44.48
21547;BME280;41275;51.912;4.388;2023-02-01T04:27:36;101973.50;;;13.58;44.11
21547;BME280;41275;51.912;4.388;2023-02-01T04:32:57;101947.88;;;13.64;44.24
21547;BME280;41275;51.912;4.388;2023-02-01T04:38:19;101971.16;;;13.68;44.18
21547;BME280;41275;51.912;4.388;2023-02-01T04:43:41;101970.50;;;13.73;44.43
21547;BME280;41275;51.912;4.388;2023-02-01T04:49:02;101970.28;;;13.74;44.04
21547;BME280;41275;51.912;4.388;2023-02-01T04:54:23;101964.56;;;13.71;44.29
21547;BME280;41275;51.912;4.388;2023-02-01T04:59:44;101961.91;;;13.71;44.26
21547;BME280;41275;51.912;4.388;2023-02-01T05:05:06;101941.16;;;13.61;44.34
21547;BME280;41275;51.912;4.388;2023-02-01T05:10:27;101945.59;;;13.42;44.57
21547;BME280;41275;51.912;4.388;2023-02-01T05:15:50;101961.22;;;13.32;44.33
21547;BME280;41275;51.912;4.388;2023-02-01T05:21:12;101964.09;;;13.31;44.85
21547;BME280;41275;51.912;4.388;2023-02-01T05:26:33;101978.44;;;13.30;44.72
21547;BME280;41275;51.912;4.388;2023-02-01T05:31:54;101959.44;;;13.19;45.16
21547;BME280;41275;51.912;4.388;2023-02-01T05:37:16;101959.88;;;13.16;45.58
21547;BME280;41275;51.912;4.388;2023-02-01T05:42:37;101965.84;;;13.12;45.61
21547;BME280;41275;51.912;4.388;2023-02-01T05:47:58;101952.41;;;13.07;46.00
21547;BME280;41275;51.912;4.388;2023-02-01T05:53:19;101956.94;;;12.99;46.06
21547;BME280;41275;51.912;4.388;2023-02-01T05:58:41;101954.66;;;13.03;46.21
21547;BME280;41275;51.912;4.388;2023-02-01T06:04:02;101960.22;;;13.01;46.08
21547;BME280;41275;51.912;4.388;2023-02-01T06:09:23;101991.44;;;13.06;45.92
21547;BME280;41275;51.912;4.388;2023-02-01T06:14:44;101990.41;;;13.07;46.03
21547;BME280;41275;51.912;4.388;2023-02-01T06:20:06;101983.25;;;13.08;46.56
21547;BME280;41275;51.912;4.388;2023-02-01T06:25:28;101980.56;;;13.14;46.29
21547;BME280;41275;51.912;4.388;2023-02-01T06:30:49;101988.50;;;13.21;46.31
21547;BME280;41275;51.912;4.388;2023-02-01T06:36:10;101995.44;;;13.29;46.05
21547;BME280;41275;51.912;4.388;2023-02-01T06:41:33;101983.59;;;13.24;45.78
21547;BME280;41275;51.912;4.388;2023-02-01T06:46:55;101981.75;;;13.18;45.94
21547;BME280;41275;51.912;4.388;2023-02-01T06:52:16;101979.72;;;13.20;46.35
21547;BME280;41275;51.912;4.388;2023-02-01T06:57:38;101963.38;;;13.17;46.23
21547;BME280;41275;51.912;4.388;2023-02-01T07:02:59;101984.78;;;13.22;46.48
21547;BME280;41275;51.912;4.388;2023-02-01T07:08:21;101938.25;;;13.13;46.23
21547;BME280;41275;51.912;4.388;2023-02-01T07:13:42;101964.38;;;13.16;46.45
21547;BME280;41275;51.912;4.388;2023-02-01T07:19:03;101989.50;;;13.20;46.34
21547;BME280;41275;51.912;4.388;2023-02-01T07:24:24;101995.03;;;13.18;46.36
21547;BME280;41275;51.912;4.388;2023-02-01T07:29:46;101993.63;;;13.16;46.23
21547;BME280;41275;51.912;4.388;2023-02-01T07:35:07;101999.94;;;13.21;46.22
21547;BME280;41275;51.912;4.388;2023-02-01T07:40:28;102004.03;;;13.24;46.23
21547;BME280;41275;51.912;4.388;2023-02-01T07:45:52;102010.75;;;13.26;46.28
21547;BME280;41275;51.912;4.388;2023-02-01T07:51:15;102032.88;;;13.20;46.49
21547;BME280;41275;51.912;4.388;2023-02-01T07:56:56;102026.72;;;13.26;46.67
21547;BME280;41275;51.912;4.388;2023-02-01T08:02:17;102021.28;;;13.40;46.42
21547;BME280;41275;51.912;4.388;2023-02-01T08:07:38;102034.59;;;13.40;46.35
21547;BME280;41275;51.912;4.388;2023-02-01T08:13:00;102024.72;;;13.47;46.15
21547;BME280;41275;51.912;4.388;2023-02-01T08:18:21;102017.03;;;13.64;45.95
21547;BME280;41275;51.912;4.388;2023-02-01T08:23:43;102036.41;;;13.71;46.07
21547;BME280;41275;51.912;4.388;2023-02-01T08:29:06;102018.16;;;13.74;45.89
21547;BME280;41275;51.912;4.388;2023-02-01T08:34:28;102010.03;;;13.69;45.65
21547;BME280;41275;51.912;4.388;2023-02-01T08:39:49;102000.63;;;13.67;45.62
21547;BME280;41275;51.912;4.388;2023-02-01T08:45:11;101999.72;;;13.80;45.77
21547;BME280;41275;51.912;4.388;2023-02-01T08:50:32;101991.44;;;13.88;45.42
21547;BME280;41275;51.912;4.388;2023-02-01T08:55:53;102006.22;;;14.02;45.71
21547;BME280;41275;51.912;4.388;2023-02-01T09:01:16;101990.06;;;14.04;45.65
21547;BME280;41275;51.912;4.388;2023-02-01T09:06:40;101975.94;;;14.03;45.74
21547;BME280;41275;51.912;4.388;2023-02-01T09:12:03;101973.84;;;14.05;45.60
21547;BME280;41275;51.912;4.388;2023-02-01T09:17:27;101976.09;;;14.27;45.18
21547;BME280;41275;51.912;4.388;2023-02-01T09:22:48;101956.09;;;14.36;44.32
21547;BME280;41275;51.912;4.388;2023-02-01T09:28:09;101968.84;;;14.52;44.87
21547;BME280;41275;51.912;4.388;2023-02-01T09:33:30;101948.38;;;14.64;43.72
21547;BME280;41275;51.912;4.388;2023-02-01T09:38:52;101975.09;;;14.58;43.82
21547;BME280;41275;51.912;4.388;2023-02-01T09:44:48;101990.88;;;14.59;43.81
21547;BME280;41275;51.912;4.388;2023-02-01T09:50:17;102004.75;;;14.80;43.10
21547;BME280;41275;51.912;4.388;2023-02-01T09:55:43;101989.13;;;14.83;43.02
21547;BME280;41275;51.912;4.388;2023-02-01T10:01:16;102016.66;;;14.77;43.21
21547;BME280;41275;51.912;4.388;2023-02-01T10:24:08;102005.72;;;14.48;43.65
21547;BME280;41275;51.912;4.388;2023-02-01T10:29:44;102001.41;;;14.54;43.81
21547;BME280;41275;51.912;4.388;2023-02-01T10:35:18;101990.03;;;14.77;43.75
21547;BME280;41275;51.912;4.388;2023-02-01T10:40:43;101992.72;;;14.89;43.72
21547;BME280;41275;51.912;4.388;2023-02-01T10:46:05;101991.72;;;14.90;43.07
21547;BME280;41275;51.912;4.388;2023-02-01T10:51:30;101977.78;;;14.88;43.34
21547;BME280;41275;51.912;4.388;2023-02-01T10:56:59;101976.03;;;14.82;43.33
21547;BME280;41275;51.912;4.388;2023-02-01T11:02:41;101979.75;;;14.92;43.19
21547;BME280;41275;51.912;4.388;2023-02-01T11:08:02;101983.47;;;14.91;43.04
21547;BME280;41275;51.912;4.388;2023-02-01T11:13:29;101973.06;;;14.90;43.15
21547;BME280;41275;51.912;4.388;2023-02-01T11:18:54;101964.75;;;14.98;42.76
21547;BME280;41275;51.912;4.388;2023-02-01T11:24:23;101967.53;;;15.03;42.90
21547;BME280;41275;51.912;4.388;2023-02-01T11:29:51;101975.84;;;14.95;43.03
21547;BME280;41275;51.912;4.388;2023-02-01T11:35:17;101992.06;;;14.93;42.68
21547;BME280;41275;51.912;4.388;2023-02-01T11:40:40;101980.91;;;14.85;43.52
21547;BME280;41275;51.912;4.388;2023-02-01T11:46:03;101963.78;;;14.92;43.79
21547;BME280;41275;51.912;4.388;2023-02-01T11:51:46;101968.41;;;14.97;43.56
21547;BME280;41275;51.912;4.388;2023-02-01T12:09:17;101966.63;;;15.09;43.06
21547;BME280;41275;51.912;4.388;2023-02-01T12:44:11;101942.91;;;15.78;42.18
21547;BME280;41275;51.912;4.388;2023-02-01T12:49:50;101950.78;;;15.50;42.10
21547;BME280;41275;51.912;4.388;2023-02-01T13:00:49;101960.06;;;15.47;42.35
21547;BME280;41275;51.912;4.388;2023-02-01T13:06:13;101952.03;;;15.23;42.53
21547;BME280;41275;51.912;4.388;2023-02-01T13:11:38;101955.16;;;15.20;42.48
21547;BME280;41275;51.912;4.388;2023-02-01T13:17:03;101957.63;;;15.34;42.81
21547;BME280;41275;51.912;4.388;2023-02-01T13:22:31;101957.28;;;15.54;42.50
21547;BME280;41275;51.912;4.388;2023-02-01T13:27:56;101960.16;;;15.64;42.91
21547;BME280;41275;51.912;4.388;2023-02-01T13:33:36;101962.97;;;15.57;42.66
21547;BME280;41275;51.912;4.388;2023-02-01T13:44:59;101939.41;;;15.31;43.38
21547;BME280;41275;51.912;4.388;2023-02-01T13:50:29;101953.84;;;15.11;43.74
21547;BME280;41275;51.912;4.388;2023-02-01T13:55:57;101956.41;;;15.06;44.01
21547;BME280;41275;51.912;4.388;2023-02-01T14:06:44;101950.06;;;15.19;44.00
21547;BME280;41275;51.912;4.388;2023-02-01T14:18:01;101940.88;;;15.15;43.62
21547;BME280;41275;51.912;4.388;2023-02-01T14:23:23;101923.38;;;15.19;44.15
21547;BME280;41275;51.912;4.388;2023-02-01T14:50:57;101946.34;;;15.20;44.80
21547;BME280;41275;51.912;4.388;2023-02-01T14:56:19;101944.72;;;15.19;44.67
21547;BME280;41275;51.912;4.388;2023-02-01T15:01:55;101944.16;;;15.17;44.73
21547;BME280;41275;51.912;4.388;2023-02-01T15:07:18;101940.66;;;15.16;44.86
21547;BME280;41275;51.912;4.388;2023-02-01T15:12:40;101954.22;;;15.15;45.45
21547;BME280;41275;51.912;4.388;2023-02-01T15:18:01;101963.03;;;15.15;45.49
21547;BME280;41275;51.912;4.388;2023-02-01T15:23:23;101951.47;;;15.21;45.04
21547;BME280;41275;51.912;4.388;2023-02-01T15:28:45;101944.84;;;15.24;45.05
21547;BME280;41275;51.912;4.388;2023-02-01T15:34:06;101937.31;;;15.21;45.17
21547;BME280;41275;51.912;4.388;2023-02-01T15:39:28;101963.84;;;15.28;45.17
21547;BME280;41275;51.912;4.388;2023-02-01T15:44:51;101965.25;;;15.18;45.92
21547;BME280;41275;51.912;4.388;2023-02-01T15:50:16;101959.09;;;15.18;46.02
21547;BME280;41275;51.912;4.388;2023-02-01T15:55:41;101951.31;;;15.16;45.88
21547;BME280;41275;51.912;4.388;2023-02-01T16:01:04;101971.72;;;15.11;46.32
21547;BME280;41275;51.912;4.388;2023-02-01T16:06:29;101973.78;;;15.09;46.11
21547;BME280;41275;51.912;4.388;2023-02-01T16:11:59;101977.41;;;15.14;46.57
21547;BME280;41275;51.912;4.388;2023-02-01T16:17:21;101987.03;;;15.15;46.40
21547;BME280;41275;51.912;4.388;2023-02-01T16:22:42;101999.53;;;15.15;46.62
21547;BME280;41275;51.912;4.388;2023-02-01T16:28:03;102000.16;;;15.17;46.32
21547;BME280;41275;51.912;4.388;2023-02-01T16:33:26;102001.72;;;15.06;46.73
21547;BME280;41275;51.912;4.388;2023-02-01T16:38:47;102016.69;;;15.07;46.58
21547;BME280;41275;51.912;4.388;2023-02-01T16:44:10;102012.41;;;15.06;47.01
21547;BME280;41275;51.912;4.388;2023-02-01T16:49:31;102005.09;;;15.02;46.88
21547;BME280;41275;51.912;4.388;2023-02-01T16:54:53;102016.06;;;14.93;46.76
21547;BME280;41275;51.912;4.388;2023-02-01T17:00:15;102011.56;;;14.76;47.23
21547;BME280;41275;51.912;4.388;2023-02-01T17:05:36;102018.16;;;14.73;47.04
21547;BME280;41275;51.912;4.388;2023-02-01T17:10:57;102018.16;;;14.73;47.26
21547;BME280;41275;51.912;4.388;2023-02-01T17:16:27;102015.66;;;14.78;47.67
21547;BME280;41275;51.912;4.388;2023-02-01T17:21:52;102026.22;;;14.85;47.74
21547;BME280;41275;51.912;4.388;2023-02-01T17:27:16;102024.19;;;14.98;47.41
21547;BME280;41275;51.912;4.388;2023-02-01T17:32:37;102035.78;;;15.04;47.38
21547;BME280;41275;51.912;4.388;2023-02-01T17:37:59;102054.59;;;15.09;46.83
21547;BME280;41275;51.912;4.388;2023-02-01T17:43:23;102042.66;;;15.12;47.14
21547;BME280;41275;51.912;4.388;2023-02-01T17:48:44;102035.47;;;15.12;46.91
21547;BME280;41275;51.912;4.388;2023-02-01T17:54:11;102039.78;;;15.13;47.27
21547;BME280;41275;51.912;4.388;2023-02-01T17:59:32;102054.13;;;15.12;47.14
21547;BME280;41275;51.912;4.388;2023-02-01T18:04:54;102054.38;;;15.11;47.33
21547;BME280;41275;51.912;4.388;2023-02-01T18:10:16;102065.16;;;15.16;46.89
21547;BME280;41275;51.912;4.388;2023-02-01T18:15:37;102054.72;;;15.14;47.21
21547;BME280;41275;51.912;4.388;2023-02-01T18:21:00;102063.97;;;15.12;46.97
21547;BME280;41275;51.912;4.388;2023-02-01T18:26:21;102064.59;;;15.14;46.88
21547;BME280;41275;51.912;4.388;2023-02-01T18:31:47;102050.56;;;15.18;47.31
21547;BME280;41275;51.912;4.388;2023-02-01T18:37:10;102047.66;;;15.20;47.48
21547;BME280;41275;51.912;4.388;2023-02-01T18:42:31;102058.56;;;15.18;47.13
21547;BME280;41275;51.912;4.388;2023-02-01T18:47:52;102066.47;;;15.25;47.53
21547;BME280;41275;51.912;4.388;2023-02-01T18:53:16;102102.53;;;15.28;47.47
21547;BME280;41275;51.912;4.388;2023-02-01T18:58:40;102076.47;;;15.30;47.32
21547;BME280;41275;51.912;4.388;2023-02-01T19:04:01;102075.19;;;15.32;47.03
21547;BME280;41275;51.912;4.388;2023-02-01T19:09:22;102067.19;;;15.32;47.08
21547;BME280;41275;51.912;4.388;2023-02-01T19:14:43;102075.88;;;15.28;47.10
21547;BME280;41275;51.912;4.388;2023-02-01T19:20:07;102089.56;;;15.31;47.59
21547;BME280;41275;51.912;4.388;2023-02-01T19:25:28;102091.66;;;15.29;47.32
21547;BME280;41275;51.912;4.388;2023-02-01T19:31:00;102084.84;;;15.33;47.35
21547;BME280;41275;51.912;4.388;2023-02-01T19:36:21;102080.25;;;15.22;47.42
21547;BME280;41275;51.912;4.388;2023-02-01T19:41:42;102083.75;;;15.22;47.35
21547;BME280;41275;51.912;4.388;2023-02-01T19:47:03;102083.66;;;15.29;47.31
21547;BME280;41275;51.912;4.388;2023-02-01T19:52:26;102082.25;;;15.27;47.21
21547;BME280;41275;51.912;4.388;2023-02-01T19:57:47;102082.94;;;15.22;47.00
21547;BME280;41275;51.912;4.388;2023-02-01T20:03:09;102090.56;;;15.18;46.96
21547;BME280;41275;51.912;4.388;2023-02-01T20:08:30;102108.78;;;15.21;47.11
21547;BME280;41275;51.912;4.388;2023-02-01T20:13:52;102079.22;;;15.23;47.29
21547;BME280;41275;51.912;4.388;2023-02-01T20:19:14;102107.19;;;15.32;46.90
21547;BME280;41275;51.912;4.388;2023-02-01T20:24:35;102107.53;;;15.36;47.11
21547;BME280;41275;51.912;4.388;2023-02-01T20:29:59;102093.75;;;15.39;46.63
21547;BME280;41275;51.912;4.388;2023-02-01T20:35:20;102090.03;;;15.40;47.06
21547;BME280;41275;51.912;4.388;2023-02-01T20:40:44;102104.19;;;15.40;47.00
21547;BME280;41275;51.912;4.388;2023-02-01T20:46:05;102097.47;;;15.38;47.24
21547;BME280;41275;51.912;4.388;2023-02-01T20:51:28;102124.50;;;15.41;47.05
21547;BME280;41275;51.912;4.388;2023-02-01T20:56:49;102121.97;;;15.46;46.68
21547;BME280;41275;51.912;4.388;2023-02-01T21:02:11;102116.19;;;15.50;46.41
21547;BME280;41275;51.912;4.388;2023-02-01T21:07:37;102128.25;;;15.52;46.67
21547;BME280;41275;51.912;4.388;2023-02-01T21:12:58;102132.31;;;15.55;46.61
21547;BME280;41275;51.912;4.388;2023-02-01T21:18:19;102129.09;;;15.53;46.58
21547;BME280;41275;51.912;4.388;2023-02-01T21:23:41;102123.38;;;15.49;46.57
21547;BME280;41275;51.912;4.388;2023-02-01T21:29:10;102124.63;;;15.46;46.59
21547;BME280;41275;51.912;4.388;2023-02-01T21:34:32;102127.69;;;15.50;46.40
21547;BME280;41275;51.912;4.388;2023-02-01T21:39:53;102134.41;;;15.53;46.47
21547;BME280;41275;51.912;4.388;2023-02-01T21:45:16;102145.69;;;15.06;47.45
21547;BME280;41275;51.912;4.388;2023-02-01T21:50:37;102143.03;;;14.44;49.37
21547;BME280;41275;51.912;4.388;2023-02-01T21:56:00;102154.13;;;14.41;49.89
21547;BME280;41275;51.912;4.388;2023-02-01T22:01:22;102162.44;;;14.58;50.06
21547;BME280;41275;51.912;4.388;2023-02-01T22:06:44;102163.03;;;14.79;49.25
21547;BME280;41275;51.912;4.388;2023-02-01T22:12:10;102149.84;;;14.84;49.30
21547;BME280;41275;51.912;4.388;2023-02-01T22:17:32;102165.84;;;14.84;49.21
21547;BME280;41275;51.912;4.388;2023-02-01T22:22:54;102153.03;;;14.74;49.82
21547;BME280;41275;51.912;4.388;2023-02-01T22:28:16;102160.00;;;14.75;49.94
21547;BME280;41275;51.912;4.388;2023-02-01T22:33:37;102160.94;;;14.81;50.36
21547;BME280;41275;51.912;4.388;2023-02-01T22:38:58;102167.00;;;14.88;49.78
21547;BME280;41275;51.912;4.388;2023-02-01T22:44:20;102169.09;;;15.04;49.88
21547;BME280;41275;51.912;4.388;2023-02-01T22:49:42;102171.97;;;15.03;49.81
21547;BME280;41275;51.912;4.388;2023-02-01T22:55:03;102170.25;;;15.08;49.49
21547;BME280;41275;51.912;4.388;2023-02-01T23:00:25;102169.97;;;15.16;48.81
21547;BME280;41275;51.912;4.388;2023-02-01T23:05:46;102179.97;;;15.21;48.68
21547;BME280;41275;51.912;4.388;2023-02-01T23:11:08;102182.91;;;15.13;48.32
21547;BME280;41275;51.912;4.388;2023-02-01T23:16:30;102182.28;;;15.17;48.05
21547;BME280;41275;51.912;4.388;2023-02-01T23:21:51;102188.31;;;15.25;47.67
21547;BME280;41275;51.912;4.388;2023-02-01T23:27:12;102174.78;;;15.26;47.88
21547;BME280;41275;51.912;4.388;2023-02-01T23:32:34;102175.09;;;15.18;47.50
21547;BME280;41275;51.912;4.388;2023-02-01T23:37:56;102173.81;;;15.20;47.50
21547;BME280;41275;51.912;4.388;2023-02-01T23:43:17;102169.25;;;15.09;47.79
21547;BME280;41275;51.912;4.388;2023-02-01T23:48:58;102171.97;;;15.03;47.70
21547;BME280;41275;51.912;4.388;2023-02-01T23:54:22;102179.91;;;15.09;48.10
21547;BME280;41275;51.912;4.388;2023-02-01T23:59:43;102197.09;;;15.13;48.07
